This is the latest recevied weather packets stored in our database for station/object OK1FET-5. If no packets are shown the sender has not sent any weather packets the latest 10 day(s).
| Time | Temp. | Humidity | Pressure | Rain* | Wind** | Luminosity | Snow |
|---|---|---|---|---|---|---|---|
| 1778058808 | 20° C | 66% | 1007.4 hPa | - | - | - | - |
| 1778058513 | 20° C | 65% | 1007.5 hPa | - | - | - | - |
| 1778058218 | 20° C | 66% | 1007.6 hPa | - | - | - | - |
| 1778057923 | 20.56° C | 66% | 1007.4 hPa | - | - | - | - |
| 1778057627 | 20.56° C | 65% | 1007.5 hPa | - | - | - | - |
| 1778057332 | 20.56° C | 65% | 1007.5 hPa | - | - | - | - |
| 1778057037 | 20° C | 66% | 1007.5 hPa | - | - | - | - |
| 1778056448 | 19.44° C | 68% | 1007.5 hPa | - | - | - | - |
| 1778056152 | 18.89° C | 68% | 1007.4 hPa | - | - | - | - |
| 1778055858 | 18.89° C | 69% | 1007.4 hPa | - | - | - | - |
| 1778055563 | 19.44° C | 67% | 1007.4 hPa | - | - | - | - |
| 1778055268 | 20° C | 67% | 1007.5 hPa | - | - | - | - |
| 1778054973 | 20° C | 67% | 1007.2 hPa | - | - | - | - |
| 1778054678 | 19.44° C | 69% | 1007.3 hPa | - | - | - | - |
| 1778054383 | 18.89° C | 69% | 1007.1 hPa | - | - | - | - |
| 1778054088 | 18.89° C | 70% | 1007.2 hPa | - | - | - | - |
| 1778053793 | 18.89° C | 70% | 1007.2 hPa | - | - | - | - |
| 1778053498 | 18.89° C | 68% | 1007.3 hPa | - | - | - | - |
| 1778053204 | 18.33° C | 71% | 1007.3 hPa | - | - | - | - |
| 1778052909 | 17.78° C | 73% | 1007.3 hPa | - | - | - | - |
| 1778052614 | 17.22° C | 73% | 1007.3 hPa | - | - | - | - |
| 1778052319 | 17.22° C | 72% | 1007.3 hPa | - | - | - | - |
| 1778052024 | 17.22° C | 72% | 1007.3 hPa | - | - | - | - |
| 1778051730 | 17.22° C | 72% | 1007.3 hPa | - | - | - | - |
| 1778051435 | 17.78° C | 71% | 1007.3 hPa | - | - | - | - |
* Rain since midnight (hover to see other rain measurements)
** Current wind speed in m/s (hover to see current wind gust speed)